Itatiba, Brazil
Current Conditions -  °F | °C
As of 4:00 PM on Thursday 30 Oct 2014 (Local Time) from SBKP Reporting Station
Scattered Clouds Scattered Clouds  
Wind Chill: 93°   Ceiling: Unl
Heat Index: 93°   Visibility: 6mi
Dew Point: 46°   Wind: 14mph
Humidity: 20%   Direction: 270°W
Pressure: 29.83"   Gusts: NA
Location:  23.01°S, 46.84°W
Report Text: SBKP 301800Z 27012KT 9999 SCT045 34/08 Q1010
Loading
Personal Weather Stations






























Interactive Weather Map New forecast layout! Learn more

10-Day Weather Forecast

Advertisements
Track Severe Weather on mobile